Private Wetterstation Wechselburg
Wetterdaten: Samstag, 10.10.2015
Datum Zeit Temp. +2m Bodentemp. Temp.+5cm Temp. Wind Windchill X Diff Temp. Feuchte +2m Feuchte +5cm Sonnenschein Luftdruck Regen Wind Richtung Richtung Sonnenschein Taupunkt Windchill Windben
10.10.2015 00:00 7,3 C 26,1 C 8,8 C 8,7 C 8,7 C 1,4 C 84 % 88 % 0 % 1019,1 hPa 0,0 l/m 0,0 km/h (0 Bft) O-NO 67 0 min 4,8 C 8,7 C 0,0 km/h (0 Bft)
10.10.2015 00:05 7,3 C 26,1 C 8,8 C 8,2 C 8,2 C 0,9 C 84 % 88 % 0 % 1019,1 hPa 0,0 l/m 1,4 km/h (1 Bft) O-NO 67 0 min 4,8 C 8,2 C 1,6 km/h (1 Bft)
10.10.2015 00:10 7,3 C 26,1 C 8,8 C 8,2 C 8,2 C 0,9 C 84 % 88 % 0 % 1019,5 hPa 0,0 l/m 1,1 km/h (1 Bft) O-SO 112 0 min 4,8 C 8,2 C 1,6 km/h (1 Bft)
10.10.2015 00:15 7,3 C 26,1 C 8,8 C 8,2 C 8,2 C 0,9 C 84 % 88 % 0 % 1019,5 hPa 0,0 l/m 0,6 km/h (0 Bft) NW 315 0 min 4,8 C 8,2 C 0,0 km/h (0 Bft)
10.10.2015 00:20 7,3 C 26,1 C 8,8 C 8,1 C 8,1 C 0,8 C 84 % 88 % 0 % 1019,5 hPa 0,0 l/m 0,5 km/h (0 Bft) O-NO 67 0 min 4,8 C 8,1 C 0,0 km/h (0 Bft)
10.10.2015 00:25 7,3 C 26,1 C 8,8 C 8,1 C 8,1 C 0,8 C 84 % 88 % 0 % 1019,5 hPa 0,0 l/m 0,5 km/h (0 Bft) W-SW 247 0 min 4,8 C 8,1 C 2,1 km/h (1 Bft)
10.10.2015 00:30 6,8 C 25,9 C 8,4 C 7,9 C 7,9 C 1,1 C 85 % 88 % 0 % 1019,4 hPa 0,0 l/m 0,2 km/h (0 Bft) O-SO 112 0 min 4,5 C 7,9 C 0,0 km/h (0 Bft)
10.10.2015 00:35 6,8 C 25,8 C 8,2 C 7,8 C 7,8 C 1,0 C 85 % 88 % 0 % 1019,4 hPa 0,0 l/m 0,3 km/h (0 Bft) O-NO 67 0 min 4,5 C 7,8 C 2,1 km/h (1 Bft)
10.10.2015 00:41 6,7 C 25,8 C 8,1 C 7,7 C 7,7 C 1,0 C 85 % 88 % 0 % 1019,4 hPa 0,0 l/m 0,8 km/h (0 Bft) N 0 0 min 4,4 C 7,7 C 3,9 km/h (1 Bft)
10.10.2015 00:50 6,3 C 25,7 C 7,8 C 7,4 C 7,4 C 1,1 C 84 % 88 % 0 % 1019,3 hPa 0,0 l/m 2,4 km/h (1 Bft) N-NO 22 0 min 3,8 C 7,4 C 5,1 km/h (1 Bft)
10.10.2015 00:55 6,3 C 25,7 C 7,7 C 7,4 C 7,4 C 1,1 C 83 % 88 % 0 % 1019,3 hPa 0,0 l/m 2,7 km/h (1 Bft) O 90 0 min 3,6 C 7,4 C 2,1 km/h (1 Bft)
10.10.2015 01:00 6,2 C 25,7 C 7,6 C 7,1 C 7,1 C 0,9 C 83 % 88 % 0 % 1019,3 hPa 0,0 l/m 1,6 km/h (1 Bft) O 90 0 min 3,5 C 7,1 C 1,6 km/h (1 Bft)
10.10.2015 01:05 6,0 C 25,7 C 7,6 C 7,0 C 7,0 C 1,0 C 83 % 88 % 0 % 1019,3 hPa 0,0 l/m 0,8 km/h (0 Bft) O-NO 67 0 min 3,3 C 7,0 C 0,0 km/h (0 Bft)
10.10.2015 01:10 5,9 C 25,6 C 7,5 C 6,8 C 6,8 C 0,9 C 83 % 88 % 0 % 1019,2 hPa 0,0 l/m 0,3 km/h (0 Bft) O 90 0 min 3,2 C 6,8 C 1,6 km/h (1 Bft)
10.10.2015 01:15 5,9 C 25,6 C 7,5 C 6,7 C 6,7 C 0,8 C 83 % 88 % 0 % 1019,2 hPa 0,0 l/m 0,3 km/h (0 Bft) O-NO 67 0 min 3,2 C 6,7 C 0,0 km/h (0 Bft)
10.10.2015 01:20 5,7 C 25,6 C 7,2 C 6,5 C 6,5 C 0,8 C 83 % 88 % 0 % 1019,2 hPa 0,0 l/m 0,3 km/h (0 Bft) SO 135 0 min 3,0 C 6,5 C 1,6 km/h (1 Bft)
10.10.2015 01:25 5,6 C 25,7 C 7,2 C 6,4 C 6,4 C 0,8 C 83 % 88 % 0 % 1019,2 hPa 0,0 l/m 0,3 km/h (0 Bft) O-NO 67 0 min 2,9 C 6,4 C 0,0 km/h (0 Bft)
10.10.2015 01:30 5,5 C 25,7 C 7,1 C 6,4 C 6,4 C 0,9 C 83 % 88 % 0 % 1019,4 hPa 0,0 l/m 0,2 km/h (0 Bft) O-NO 67 0 min 2,8 C 6,4 C 0,0 km/h (0 Bft)
10.10.2015 01:35 5,5 C 25,7 C 7,0 C 6,4 C 6,4 C 0,9 C 83 % 88 % 0 % 1019,4 hPa 0,0 l/m 0,2 km/h (0 Bft) W-SW 247 0 min 2,8 C 6,4 C 0,0 km/h (0 Bft)
10.10.2015 01:40 5,3 C 25,7 C 7,1 C 6,3 C 6,3 C 1,0 C 83 % 88 % 0 % 1019,4 hPa 0,0 l/m 0,0 km/h (0 Bft) NO 45 0 min 2,7 C 6,3 C 0,0 km/h (0 Bft)
10.10.2015 01:45 5,3 C 25,6 C 6,9 C 6,2 C 6,2 C 0,9 C 83 % 88 % 0 % 1019,4 hPa 0,0 l/m 0,0 km/h (0 Bft) NO 45 0 min 2,7 C 6,2 C 0,0 km/h (0 Bft)
10.10.2015 01:50 5,3 C 25,6 C 6,9 C 6,1 C 6,1 C 0,8 C 83 % 88 % 0 % 1019,2 hPa 0,0 l/m 0,0 km/h (0 Bft) NO 45 0 min 2,7 C 6,1 C 0,0 km/h (0 Bft)
10.10.2015 01:55 5,2 C 25,5 C 6,8 C 6,1 C 6,1 C 0,9 C 83 % 88 % 0 % 1019,2 hPa 0,0 l/m 0,2 km/h (0 Bft) NO 45 0 min 2,6 C 6,1 C 2,4 km/h (1 Bft)
10.10.2015 02:00 5,0 C 25,5 C 6,8 C 6,0 C 6,0 C 1,0 C 83 % 88 % 0 % 1019,2 hPa 0,0 l/m 0,2 km/h (0 Bft) O-NO 67 0 min 2,4 C 6,0 C 0,0 km/h (0 Bft)
10.10.2015 02:05 5,1 C 25,5 C 6,7 C 6,0 C 6,0 C 0,9 C 83 % 88 % 0 % 1019,2 hPa 0,0 l/m 0,5 km/h (0 Bft) N-NO 22 0 min 2,5 C 6,0 C 1,9 km/h (1 Bft)
10.10.2015 02:10 4,9 C 25,5 C 6,6 C 5,9 C 5,9 C 1,0 C 83 % 88 % 0 % 1019,6 hPa 0,0 l/m 0,2 km/h (0 Bft) O-NO 67 0 min 2,3 C 5,9 C 0,0 km/h (0 Bft)
10.10.2015 02:15 4,9 C 25,4 C 6,7 C 5,9 C 5,9 C 1,0 C 83 % 88 % 0 % 1019,6 hPa 0,0 l/m 0,0 km/h (0 Bft) O-NO 67 0 min 2,3 C 5,9 C 0,0 km/h (0 Bft)
10.10.2015 02:20 4,8 C 25,5 C 6,6 C 5,8 C 5,8 C 1,0 C 83 % 88 % 0 % 1019,6 hPa 0,0 l/m 0,0 km/h (0 Bft) O-NO 67 0 min 2,2 C 5,8 C 0,0 km/h (0 Bft)
10.10.2015 02:25 4,9 C 25,4 C 6,5 C 5,8 C 5,8 C 0,9 C 83 % 88 % 0 % 1019,6 hPa 0,0 l/m 0,0 km/h (0 Bft) NO 45 0 min 2,3 C 5,8 C 0,0 km/h (0 Bft)
10.10.2015 02:30 4,8 C 25,4 C 6,5 C 5,7 C 5,7 C 0,9 C 83 % 88 % 0 % 1019,4 hPa 0,0 l/m 0,0 km/h (0 Bft) NW 315 0 min 2,2 C 5,7 C 0,0 km/h (0 Bft)
10.10.2015 02:35 4,7 C 25,4 C 6,4 C 5,7 C 5,7 C 1,0 C 83 % 89 % 0 % 1019,4 hPa 0,0 l/m 0,0 km/h (0 Bft) O 90 0 min 2,1 C 5,7 C 0,0 km/h (0 Bft)
10.10.2015 02:40 4,6 C 25,4 C 6,4 C 5,6 C 5,6 C 1,0 C 83 % 89 % 0 % 1019,4 hPa 0,0 l/m 0,0 km/h (0 Bft) O-NO 67 0 min 2,0 C 5,6 C 0,0 km/h (0 Bft)
10.10.2015 02:45 4,7 C 25,3 C 6,4 C 5,6 C 5,6 C 0,9 C 83 % 89 % 0 % 1019,4 hPa 0,0 l/m 0,0 km/h (0 Bft) O 90 0 min 2,1 C 5,6 C 0,0 km/h (0 Bft)
10.10.2015 02:50 4,5 C 25,3 C 6,4 C 5,6 C 5,6 C 1,1 C 83 % 89 % 0 % 1019,4 hPa 0,0 l/m 0,0 km/h (0 Bft) NW 315 0 min 1,9 C 5,6 C 0,0 km/h (0 Bft)
10.10.2015 02:55 4,5 C 25,3 C 6,3 C 5,5 C 5,5 C 1,0 C 83 % 89 % 0 % 1019,4 hPa 0,0 l/m 0,0 km/h (0 Bft) N-NW 337 0 min 1,9 C 5,5 C 0,0 km/h (0 Bft)
10.10.2015 03:00 4,4 C 25,3 C 6,3 C 5,3 C 5,3 C 0,9 C 84 % 89 % 0 % 1019,4 hPa 0,0 l/m 0,0 km/h (0 Bft) NW 315 0 min 1,9 C 5,3 C 0,0 km/h (0 Bft)
10.10.2015 03:05 4,5 C 25,3 C 6,1 C 5,2 C 5,2 C 0,7 C 84 % 88 % 0 % 1019,4 hPa 0,0 l/m 0,0 km/h (0 Bft) W-NW 292 0 min 2,0 C 5,2 C 0,0 km/h (0 Bft)
10.10.2015 03:10 4,3 C 25,2 C 6,0 C 5,0 C 5,0 C 0,7 C 84 % 89 % 0 % 1019,8 hPa 0,0 l/m 0,0 km/h (0 Bft) O-NO 67 0 min 1,8 C 5,0 C 0,0 km/h (0 Bft)
10.10.2015 03:15 4,3 C 25,2 C 6,0 C 4,8 C 4,8 C 0,5 C 84 % 89 % 0 % 1019,8 hPa 0,0 l/m 0,0 km/h (0 Bft) O-NO 67 0 min 1,8 C 4,8 C 0,0 km/h (0 Bft)
10.10.2015 03:20 4,1 C 25,2 C 5,9 C 4,5 C 4,5 C 0,4 C 84 % 89 % 0 % 1019,8 hPa 0,0 l/m 0,0 km/h (0 Bft) N-NW 337 0 min 1,6 C 4,5 C 0,0 km/h (0 Bft)
10.10.2015 03:25 4,0 C 25,2 C 5,9 C 4,4 C 4,4 C 0,4 C 84 % 89 % 0 % 1019,8 hPa 0,0 l/m 0,0 km/h (0 Bft) O-NO 67 0 min 1,5 C 4,4 C 0,0 km/h (0 Bft)
10.10.2015 03:30 4,0 C 25,2 C 5,7 C 4,2 C 4,2 C 0,2 C 84 % 89 % 0 % 1019,3 hPa 0,0 l/m 0,0 km/h (0 Bft) O-NO 67 0 min 1,5 C 4,2 C 0,0 km/h (0 Bft)
10.10.2015 03:35 3,8 C 25,1 C 5,6 C 4,0 C 4,0 C 0,2 C 84 % 89 % 0 % 1019,3 hPa 0,0 l/m 0,0 km/h (0 Bft) O-NO 67 0 min 1,4 C 4,0 C 0,0 km/h (0 Bft)
10.10.2015 03:41 3,7 C 25,2 C 5,6 C 4,0 C 4,0 C 0,3 C 84 % 89 % 0 % 1019,3 hPa 0,0 l/m 0,0 km/h (0 Bft) N 0 0 min 1,3 C 4,0 C 0,0 km/h (0 Bft)
10.10.2015 03:50 3,6 C 25,1 C 5,4 C 4,0 C 4,0 C 0,4 C 85 % 89 % 0 % 1020,0 hPa 0,0 l/m 0,3 km/h (0 Bft) O-NO 67 0 min 1,3 C 4,0 C 1,8 km/h (1 Bft)
10.10.2015 03:55 3,6 C 25,1 C 5,5 C 4,0 C 4,0 C 0,4 C 85 % 89 % 0 % 1020,0 hPa 0,0 l/m 0,3 km/h (0 Bft) O-NO 67 0 min 1,3 C 4,0 C 0,0 km/h (0 Bft)
10.10.2015 04:00 3,6 C 25,1 C 5,4 C 4,0 C 4,0 C 0,4 C 85 % 89 % 0 % 1020,0 hPa 0,0 l/m 0,2 km/h (0 Bft) O-SO 112 0 min 1,3 C 4,0 C 0,0 km/h (0 Bft)
10.10.2015 04:05 3,5 C 25,1 C 5,3 C 3,9 C 3,9 C 0,4 C 85 % 89 % 0 % 1020,0 hPa 0,0 l/m 0,2 km/h (0 Bft) O-NO 67 0 min 1,2 C 3,9 C 0,0 km/h (0 Bft)
10.10.2015 04:10 3,5 C 25,0 C 5,2 C 3,9 C 3,9 C 0,4 C 85 % 89 % 0 % 1019,8 hPa 0,0 l/m 0,2 km/h (0 Bft) O-NO 67 0 min 1,2 C 3,9 C 2,1 km/h (1 Bft)
10.10.2015 04:15 3,4 C 25,0 C 5,2 C 3,8 C 3,8 C 0,4 C 85 % 89 % 0 % 1019,8 hPa 0,0 l/m 0,0 km/h (0 Bft) O-NO 67 0 min 1,1 C 3,8 C 0,0 km/h (0 Bft)
10.10.2015 04:20 3,3 C 25,0 C 5,2 C 3,5 C 3,5 C 0,2 C 85 % 89 % 0 % 1019,8 hPa 0,0 l/m 0,0 km/h (0 Bft) O-NO 67 0 min 1,0 C 3,5 C 0,0 km/h (0 Bft)
10.10.2015 04:25 3,3 C 25,0 C 5,1 C 3,4 C 3,4 C 0,1 C 85 % 89 % 0 % 1019,8 hPa 0,0 l/m 0,0 km/h (0 Bft) O-NO 67 0 min 1,0 C 3,4 C 0,0 km/h (0 Bft)
10.10.2015 04:30 3,1 C 25,0 C 4,9 C 3,2 C 3,2 C 0,1 C 85 % 89 % 0 % 1019,6 hPa 0,0 l/m 0,0 km/h (0 Bft) O-NO 67 0 min 0,8 C 3,2 C 0,0 km/h (0 Bft)
10.10.2015 04:35 3,1 C 25,0 C 4,8 C 3,0 C 2,9 C 0,0 C 85 % 88 % 0 % 1019,6 hPa 0,0 l/m 0,0 km/h (0 Bft) NW 315 0 min 0,8 C 2,9 C 0,0 km/h (0 Bft)
10.10.2015 04:40 2,9 C 25,0 C 4,8 C 2,9 C 2,8 C 0,0 C 85 % 88 % 0 % 1019,6 hPa 0,0 l/m 0,0 km/h (0 Bft) NW 315 0 min 0,6 C 2,8 C 0,0 km/h (0 Bft)
10.10.2015 04:45 2,8 C 25,0 C 4,7 C 2,7 C 2,6 C 0,0 C 85 % 88 % 0 % 1019,6 hPa 0,0 l/m 0,0 km/h (0 Bft) NW 315 0 min 0,5 C 2,6 C 0,0 km/h (0 Bft)
10.10.2015 04:50 2,7 C 25,0 C 4,7 C 2,6 C 2,4 C 0,0 C 85 % 88 % 0 % 1019,6 hPa 0,0 l/m 0,0 km/h (0 Bft) NW 315 0 min 0,4 C 2,4 C 0,0 km/h (0 Bft)
10.10.2015 04:55 2,7 C 25,0 C 4,5 C 2,6 C 2,3 C 0,0 C 85 % 88 % 0 % 1019,6 hPa 0,0 l/m 0,0 km/h (0 Bft) NW 315 0 min 0,4 C 2,3 C 0,0 km/h (0 Bft)
10.10.2015 05:00 2,5 C 24,9 C 4,5 C 2,4 C 2,2 C 0,0 C 85 % 88 % 0 % 1019,6 hPa 0,0 l/m 0,0 km/h (0 Bft) N-NW 337 0 min 0,2 C 2,2 C 0,0 km/h (0 Bft)
10.10.2015 05:05 2,4 C 24,9 C 4,4 C 2,3 C 2,2 C 0,0 C 85 % 88 % 0 % 1019,6 hPa 0,0 l/m 0,2 km/h (0 Bft) W 270 0 min 0,1 C 2,2 C 0,0 km/h (0 Bft)
10.10.2015 05:10 2,5 C 24,9 C 4,3 C 2,4 C 2,1 C 0,0 C 85 % 88 % 0 % 1019,9 hPa 0,0 l/m 0,2 km/h (0 Bft) N-NO 22 0 min 0,2 C 2,1 C 0,0 km/h (0 Bft)
10.10.2015 05:15 2,3 C 24,9 C 4,2 C 2,2 C 2,0 C 0,0 C 85 % 88 % 0 % 1019,9 hPa 0,0 l/m 0,0 km/h (0 Bft) N-NW 337 0 min 0,0 C 2,0 C 0,0 km/h (0 Bft)
10.10.2015 05:20 2,3 C 24,9 C 4,1 C 2,2 C 1,9 C 0,0 C 85 % 88 % 0 % 1019,9 hPa 0,0 l/m 0,0 km/h (0 Bft) NO 45 0 min 0,0 C 1,9 C 0,0 km/h (0 Bft)
10.10.2015 05:25 2,1 C 24,8 C 4,1 C 2,0 C 1,8 C 0,0 C 85 % 88 % 0 % 1019,9 hPa 0,0 l/m 0,0 km/h (0 Bft) O-NO 67 0 min -0,2 C 1,8 C 0,0 km/h (0 Bft)
10.10.2015 05:30 2,0 C 24,8 C 4,0 C 1,9 C 1,7 C 0,0 C 86 % 88 % 0 % 1019,8 hPa 0,0 l/m 0,0 km/h (0 Bft) O-NO 67 0 min -0,1 C 1,7 C 0,0 km/h (0 Bft)
10.10.2015 05:35 2,1 C 24,8 C 3,9 C 2,0 C 1,7 C 0,0 C 86 % 88 % 0 % 1019,8 hPa 0,0 l/m 0,0 km/h (0 Bft) NO 45 0 min 0,0 C 1,7 C 0,0 km/h (0 Bft)
10.10.2015 05:40 2,0 C 24,8 C 3,9 C 1,9 C 1,7 C 0,0 C 86 % 88 % 0 % 1019,8 hPa 0,0 l/m 0,0 km/h (0 Bft) O-NO 67 0 min -0,1 C 1,7 C 0,0 km/h (0 Bft)
10.10.2015 05:45 1,9 C 24,8 C 3,9 C 1,8 C 1,6 C 0,0 C 86 % 88 % 0 % 1019,8 hPa 0,0 l/m 0,0 km/h (0 Bft) W-NW 292 0 min -0,2 C 1,6 C 0,0 km/h (0 Bft)
10.10.2015 05:50 1,9 C 24,7 C 4,0 C 1,8 C 1,7 C 0,0 C 86 % 88 % 0 % 1019,8 hPa 0,0 l/m 0,0 km/h (0 Bft) O-SO 112 0 min -0,2 C 1,7 C 0,0 km/h (0 Bft)
10.10.2015 05:55 1,9 C 24,7 C 3,9 C 1,8 C 1,7 C 0,0 C 86 % 88 % 0 % 1019,8 hPa 0,0 l/m 0,0 km/h (0 Bft) O-SO 112 0 min -0,2 C 1,7 C 0,0 km/h (0 Bft)
10.10.2015 06:00 1,8 C 24,7 C 4,0 C 1,9 C 1,9 C 0,1 C 86 % 88 % 0 % 1019,8 hPa 0,0 l/m 0,0 km/h (0 Bft) O-SO 112 0 min -0,3 C 1,9 C 0,0 km/h (0 Bft)
10.10.2015 06:05 1,9 C 24,7 C 4,1 C 2,2 C 2,2 C 0,3 C 87 % 88 % 0 % 1019,8 hPa 0,0 l/m 0,0 km/h (0 Bft) O-SO 112 0 min -0,0 C 2,2 C 0,0 km/h (0 Bft)
10.10.2015 06:10 2,0 C 24,7 C 4,3 C 2,7 C 2,7 C 0,7 C 87 % 88 % 0 % 1020,0 hPa 0,0 l/m 0,0 km/h (0 Bft) N-NW 337 0 min 0,1 C 2,7 C 1,6 km/h (1 Bft)
10.10.2015 06:15 2,1 C 24,6 C 4,3 C 2,9 C 2,9 C 0,8 C 88 % 88 % 0 % 1020,0 hPa 0,0 l/m 0,3 km/h (0 Bft) W-NW 292 0 min 0,3 C 2,9 C 1,9 km/h (1 Bft)
10.10.2015 06:20 2,3 C 24,6 C 4,4 C 3,3 C 3,3 C 1,0 C 88 % 88 % 0 % 1020,0 hPa 0,0 l/m 0,3 km/h (0 Bft) NW 315 0 min 0,5 C 3,3 C 0,0 km/h (0 Bft)
10.10.2015 06:25 2,3 C 24,7 C 4,4 C 3,4 C 3,4 C 1,1 C 88 % 88 % 0 % 1020,0 hPa 0,0 l/m 0,2 km/h (0 Bft) N-NW 337 0 min 0,5 C 3,4 C 0,0 km/h (0 Bft)
10.10.2015 06:30 2,5 C 24,6 C 4,4 C 3,7 C 3,7 C 1,2 C 88 % 88 % 0 % 1020,0 hPa 0,0 l/m 0,0 km/h (0 Bft) O 90 0 min 0,7 C 3,7 C 0,0 km/h (0 Bft)
10.10.2015 06:35 2,5 C 24,6 C 4,6 C 3,8 C 3,8 C 1,3 C 88 % 88 % 0 % 1020,0 hPa 0,0 l/m 0,0 km/h (0 Bft) O-NO 67 0 min 0,7 C 3,8 C 0,0 km/h (0 Bft)
10.10.2015 06:41 2,5 C 24,6 C 4,7 C 4,0 C 4,0 C 1,5 C 88 % 88 % 0 % 1020,0 hPa 0,0 l/m 0,0 km/h (0 Bft) N 0 0 min 0,7 C 4,0 C 0,0 km/h (0 Bft)
10.10.2015 06:50 2,7 C 24,5 C 4,7 C 4,2 C 4,2 C 1,5 C 88 % 88 % 0 % 1020,4 hPa 0,0 l/m 0,0 km/h (0 Bft) S-SO 157 0 min 0,9 C 4,2 C 0,0 km/h (0 Bft)
10.10.2015 06:55 2,7 C 24,6 C 4,7 C 4,2 C 4,2 C 1,5 C 88 % 88 % 0 % 1020,4 hPa 0,0 l/m 0,0 km/h (0 Bft) SW 225 0 min 0,9 C 4,2 C 0,0 km/h (0 Bft)
10.10.2015 07:00 2,7 C 24,5 C 4,7 C 4,3 C 4,3 C 1,6 C 88 % 88 % 0 % 1020,4 hPa 0,0 l/m 0,0 km/h (0 Bft) N-NW 337 0 min 0,9 C 4,3 C 0,0 km/h (0 Bft)
10.10.2015 07:05 2,8 C 24,5 C 4,7 C 4,3 C 4,3 C 1,5 C 88 % 88 % 0 % 1020,4 hPa 0,0 l/m 0,3 km/h (0 Bft) SO 135 0 min 1,0 C 4,3 C 0,0 km/h (0 Bft)
10.10.2015 07:10 2,9 C 24,5 C 4,8 C 4,3 C 4,3 C 1,4 C 88 % 88 % 0 % 1019,9 hPa 0,0 l/m 0,3 km/h (0 Bft) O-NO 67 0 min 1,1 C 4,3 C 0,0 km/h (0 Bft)
10.10.2015 07:15 2,8 C 24,5 C 4,8 C 4,4 C 4,4 C 1,6 C 88 % 88 % 0 % 1019,9 hPa 0,0 l/m 0,2 km/h (0 Bft) NW 315 0 min 1,0 C 4,4 C 0,0 km/h (0 Bft)
10.10.2015 07:20 2,8 C 24,5 C 4,8 C 4,3 C 4,3 C 1,5 C 88 % 88 % 0 % 1019,9 hPa 0,0 l/m 0,0 km/h (0 Bft) NW 315 0 min 1,0 C 4,3 C 0,0 km/h (0 Bft)
10.10.2015 07:25 2,8 C 24,5 C 4,8 C 4,3 C 4,3 C 1,5 C 88 % 88 % 0 % 1019,9 hPa 0,0 l/m 0,2 km/h (0 Bft) N-NW 337 0 min 1,0 C 4,3 C 0,0 km/h (0 Bft)
10.10.2015 07:30 2,8 C 24,4 C 4,7 C 4,2 C 4,2 C 1,4 C 88 % 88 % 0 % 1020,1 hPa 0,0 l/m 0,2 km/h (0 Bft) N 360 0 min 1,0 C 4,2 C 0,0 km/h (0 Bft)
10.10.2015 07:35 2,8 C 24,4 C 4,8 C 4,1 C 4,1 C 1,3 C 88 % 88 % 34 % 1020,1 hPa 0,0 l/m 0,0 km/h (0 Bft) NW 315 5 min 1,0 C 4,1 C 0,0 km/h (0 Bft)
10.10.2015 07:40 2,8 C 24,4 C 4,7 C 4,0 C 4,0 C 1,2 C 87 % 88 % 32 % 1020,1 hPa 0,0 l/m 0,6 km/h (0 Bft) NW 315 5 min 0,9 C 4,0 C 0,0 km/h (0 Bft)
10.10.2015 07:45 2,8 C 24,4 C 4,7 C 3,9 C 3,9 C 1,1 C 87 % 88 % 29 % 1020,1 hPa 0,0 l/m 0,6 km/h (0 Bft) N-NW 337 5 min 0,9 C 3,9 C 1,9 km/h (1 Bft)
10.10.2015 07:50 2,8 C 24,4 C 4,7 C 3,9 C 3,9 C 1,1 C 88 % 88 % 29 % 1020,1 hPa 0,0 l/m 0,2 km/h (0 Bft) O-SO 112 5 min 1,0 C 3,9 C 0,0 km/h (0 Bft)
10.10.2015 07:55 2,8 C 24,3 C 4,7 C 3,9 C 3,9 C 1,1 C 87 % 88 % 29 % 1020,1 hPa 0,0 l/m 0,3 km/h (0 Bft) N-NO 22 5 min 0,9 C 3,9 C 0,0 km/h (0 Bft)
10.10.2015 08:00 2,9 C 24,3 C 4,8 C 3,9 C 3,9 C 1,0 C 88 % 88 % 26 % 1020,1 hPa 0,0 l/m 0,0 km/h (0 Bft) S 180 5 min 1,1 C 3,9 C 0,0 km/h (0 Bft)
10.10.2015 08:05 2,9 C 24,3 C 4,9 C 4,0 C 4,0 C 1,1 C 88 % 88 % 29 % 1020,1 hPa 0,0 l/m 0,0 km/h (0 Bft) O 90 5 min 1,1 C 4,0 C 0,0 km/h (0 Bft)
10.10.2015 08:10 3,1 C 24,3 C 4,9 C 4,2 C 4,2 C 1,1 C 88 % 88 % 29 % 1020,4 hPa 0,0 l/m 0,0 km/h (0 Bft) S-SO 157 5 min 1,3 C 4,2 C 0,0 km/h (0 Bft)
10.10.2015 08:15 3,1 C 24,3 C 5,1 C 4,4 C 4,4 C 1,3 C 88 % 88 % 34 % 1020,4 hPa 0,0 l/m 0,0 km/h (0 Bft) NO 45 5 min 1,3 C 4,4 C 0,0 km/h (0 Bft)
10.10.2015 08:20 3,2 C 24,3 C 5,3 C 4,7 C 4,7 C 1,5 C 88 % 88 % 39 % 1020,4 hPa 0,0 l/m 0,0 km/h (0 Bft) NO 45 5 min 1,4 C 4,7 C 0,0 km/h (0 Bft)
10.10.2015 08:25 3,3 C 24,3 C 5,2 C 4,9 C 4,9 C 1,6 C 88 % 88 % 42 % 1020,4 hPa 0,0 l/m 0,0 km/h (0 Bft) NW 315 5 min 1,5 C 4,9 C 0,0 km/h (0 Bft)
10.10.2015 08:30 3,3 C 24,2 C 5,2 C 5,1 C 5,1 C 1,8 C 88 % 88 % 47 % 1020,9 hPa 0,0 l/m 0,0 km/h (0 Bft) O 90 5 min 1,5 C 5,1 C 2,1 km/h (1 Bft)
10.10.2015 08:35 3,3 C 24,2 C 5,3 C 5,1 C 5,1 C 1,8 C 88 % 88 % 47 % 1020,9 hPa 0,0 l/m 0,3 km/h (0 Bft) O-NO 67 5 min 1,5 C 5,1 C 1,6 km/h (1 Bft)
10.10.2015 08:40 3,3 C 24,2 C 5,2 C 5,1 C 5,1 C 1,8 C 87 % 89 % 47 % 1020,9 hPa 0,0 l/m 0,6 km/h (0 Bft) O-NO 67 0 min 1,3 C 5,1 C 0,0 km/h (0 Bft)
10.10.2015 08:45 3,3 C 24,2 C 5,2 C 5,1 C 5,1 C 1,8 C 87 % 89 % 47 % 1020,9 hPa 0,0 l/m 0,5 km/h (0 Bft) N-NO 22 0 min 1,3 C 5,1 C 0,0 km/h (0 Bft)
10.10.2015 08:50 3,3 C 24,1 C 5,2 C 5,2 C 5,2 C 1,9 C 87 % 89 % 50 % 1020,6 hPa 0,0 l/m 0,2 km/h (0 Bft) O-NO 67 0 min 1,3 C 5,2 C 0,0 km/h (0 Bft)
10.10.2015 08:55 3,3 C 24,1 C 5,2 C 5,2 C 5,2 C 1,9 C 87 % 89 % 50 % 1020,6 hPa 0,0 l/m 0,2 km/h (0 Bft) O 90 0 min 1,3 C 5,2 C 0,0 km/h (0 Bft)
10.10.2015 09:00 3,3 C 24,1 C 5,2 C 5,3 C 5,3 C 2,0 C 87 % 89 % 53 % 1020,6 hPa 0,0 l/m 0,5 km/h (0 Bft) N-NO 22 0 min 1,3 C 5,3 C 0,0 km/h (0 Bft)
10.10.2015 09:05 3,2 C 24,1 C 5,1 C 5,3 C 5,3 C 2,1 C 87 % 89 % 55 % 1020,6 hPa 0,0 l/m 0,5 km/h (0 Bft) NO 45 0 min 1,2 C 5,3 C 0,0 km/h (0 Bft)
10.10.2015 09:10 3,3 C 24,1 C 5,1 C 5,3 C 5,3 C 2,0 C 87 % 89 % 53 % 1020,4 hPa 0,0 l/m 0,5 km/h (0 Bft) W 270 0 min 1,3 C 5,3 C 2,1 km/h (1 Bft)
10.10.2015 09:15 3,3 C 24,0 C 5,1 C 5,4 C 5,4 C 2,1 C 87 % 89 % 55 % 1020,4 hPa 0,0 l/m 0,6 km/h (0 Bft) W-SW 247 0 min 1,3 C 5,4 C 0,0 km/h (0 Bft)
10.10.2015 09:20 3,3 C 24,0 C 5,2 C 5,5 C 5,5 C 2,2 C 86 % 89 % 58 % 1020,4 hPa 0,0 l/m 0,3 km/h (0 Bft) O-SO 112 0 min 1,2 C 5,5 C 5,3 km/h (1 Bft)
10.10.2015 09:25 3,3 C 24,0 C 5,2 C 5,6 C 5,6 C 2,3 C 86 % 89 % 61 % 1020,4 hPa 0,0 l/m 0,0 km/h (0 Bft) S-SO 157 0 min 1,2 C 5,6 C 0,0 km/h (0 Bft)
10.10.2015 09:30 3,5 C 24,0 C 5,3 C 5,9 C 5,9 C 2,4 C 87 % 89 % 63 % 1020,5 hPa 0,0 l/m 0,2 km/h (0 Bft) NW 315 0 min 1,5 C 5,9 C 1,9 km/h (1 Bft)
10.10.2015 09:35 3,5 C 24,0 C 5,2 C 6,1 C 6,1 C 2,6 C 86 % 89 % 68 % 1020,5 hPa 0,0 l/m 0,3 km/h (0 Bft) NW 315 0 min 1,4 C 6,1 C 0,0 km/h (0 Bft)
10.10.2015 09:41 3,5 C 24,0 C 5,3 C 6,1 C 6,1 C 2,6 C 86 % 89 % 68 % 1020,5 hPa 0,0 l/m 0,8 km/h (0 Bft) N 0 0 min 1,4 C 6,1 C 2,1 km/h (1 Bft)
10.10.2015 09:50 3,6 C 23,9 C 5,5 C 6,4 C 6,4 C 2,8 C 86 % 89 % 74 % 1021,3 hPa 0,0 l/m 0,6 km/h (0 Bft) N-NW 337 0 min 1,5 C 6,4 C 0,0 km/h (0 Bft)
10.10.2015 09:55 3,6 C 23,9 C 5,6 C 6,6 C 6,6 C 3,0 C 86 % 89 % 79 % 1021,3 hPa 0,0 l/m 0,3 km/h (0 Bft) SO 135 0 min 1,5 C 6,6 C 0,0 km/h (0 Bft)
10.10.2015 10:00 3,9 C 23,9 C 5,7 C 6,8 C 6,8 C 2,9 C 86 % 89 % 76 % 1021,3 hPa 0,0 l/m 0,5 km/h (0 Bft) N-NO 22 0 min 1,8 C 6,8 C 3,2 km/h (1 Bft)
10.10.2015 10:05 3,9 C 23,9 C 5,8 C 7,0 C 7,0 C 3,1 C 85 % 89 % 82 % 1021,3 hPa 0,0 l/m 1,0 km/h (0 Bft) O-NO 67 0 min 1,6 C 7,0 C 3,1 km/h (1 Bft)
10.10.2015 10:10 3,9 C 23,9 C 5,8 C 6,9 C 6,9 C 3,0 C 85 % 88 % 79 % 1020,8 hPa 0,0 l/m 2,3 km/h (1 Bft) N-NO 22 0 min 1,6 C 6,9 C 6,8 km/h (2 Bft)
10.10.2015 10:15 3,9 C 23,9 C 5,9 C 7,0 C 7,0 C 3,1 C 84 % 88 % 82 % 1020,8 hPa 0,0 l/m 3,4 km/h (1 Bft) O-NO 67 0 min 1,4 C 7,0 C 4,5 km/h (1 Bft)
10.10.2015 10:20 3,9 C 23,9 C 5,9 C 6,7 C 6,7 C 2,8 C 83 % 87 % 74 % 1020,8 hPa 0,0 l/m 3,9 km/h (1 Bft) O-NO 67 0 min 1,3 C 6,7 C 8,5 km/h (2 Bft)
10.10.2015 10:25 4,1 C 23,9 C 6,0 C 6,7 C 6,7 C 2,6 C 83 % 87 % 68 % 1020,8 hPa 0,0 l/m 4,0 km/h (1 Bft) O-NO 67 0 min 1,5 C 6,7 C 4,3 km/h (1 Bft)
10.10.2015 10:30 4,1 C 23,9 C 6,0 C 6,9 C 6,9 C 2,8 C 83 % 87 % 74 % 1020,1 hPa 0,0 l/m 3,9 km/h (1 Bft) O-NO 67 0 min 1,5 C 6,9 C 5,1 km/h (1 Bft)
10.10.2015 10:35 4,2 C 23,9 C 6,3 C 7,1 C 7,1 C 2,9 C 83 % 87 % 76 % 1020,1 hPa 0,0 l/m 3,9 km/h (1 Bft) O-NO 67 0 min 1,6 C 7,1 C 5,8 km/h (2 Bft)
10.10.2015 10:40 4,3 C 23,8 C 6,4 C 7,5 C 7,5 C 3,2 C 83 % 87 % 84 % 1020,1 hPa 0,0 l/m 2,9 km/h (1 Bft) O-NO 67 0 min 1,7 C 7,5 C 2,7 km/h (1 Bft)
10.10.2015 10:45 4,4 C 23,8 C 6,4 C 7,7 C 7,7 C 3,3 C 83 % 87 % 87 % 1020,1 hPa 0,0 l/m 2,4 km/h (1 Bft) O-SO 112 5 min 1,8 C 7,7 C 0,0 km/h (0 Bft)
10.10.2015 10:50 4,7 C 23,8 C 6,4 C 8,1 C 8,1 C 3,4 C 83 % 87 % 89 % 1020,9 hPa 0,0 l/m 1,4 km/h (1 Bft) O-NO 67 5 min 2,1 C 8,1 C 3,1 km/h (1 Bft)
10.10.2015 10:55 4,7 C 23,8 C 6,5 C 8,1 C 8,1 C 3,4 C 82 % 86 % 89 % 1020,9 hPa 0,0 l/m 1,8 km/h (1 Bft) NO 45 5 min 1,9 C 8,1 C 0,0 km/h (0 Bft)
10.10.2015 11:00 4,8 C 23,8 C 6,7 C 8,2 C 8,2 C 3,4 C 82 % 87 % 89 % 1020,9 hPa 0,0 l/m 1,6 km/h (1 Bft) N-NO 22 5 min 2,0 C 8,2 C 1,9 km/h (1 Bft)
10.10.2015 11:05 4,9 C 23,8 C 6,7 C 8,2 C 8,2 C 3,3 C 82 % 86 % 87 % 1020,9 hPa 0,0 l/m 0,6 km/h (0 Bft) N 360 5 min 2,1 C 8,2 C 0,0 km/h (0 Bft)
10.10.2015 11:10 5,1 C 23,8 C 6,6 C 8,1 C 8,1 C 3,0 C 81 % 86 % 79 % 1020,2 hPa 0,0 l/m 1,4 km/h (1 Bft) SO 135 0 min 2,1 C 8,1 C 2,6 km/h (1 Bft)
10.10.2015 11:15 5,1 C 23,6 C 6,6 C 8,1 C 8,1 C 3,0 C 81 % 86 % 79 % 1020,2 hPa 0,0 l/m 1,3 km/h (1 Bft) O-SO 112 0 min 2,1 C 8,1 C 3,9 km/h (1 Bft)
10.10.2015 11:20 5,2 C 23,6 C 6,9 C 8,4 C 8,4 C 3,2 C 81 % 86 % 84 % 1020,2 hPa 0,0 l/m 1,6 km/h (1 Bft) O-SO 112 0 min 2,2 C 8,4 C 0,0 km/h (0 Bft)
10.10.2015 11:25 5,3 C 23,6 C 6,9 C 8,4 C 8,4 C 3,1 C 81 % 86 % 82 % 1020,2 hPa 0,0 l/m 2,1 km/h (1 Bft) O-NO 67 0 min 2,3 C 8,4 C 5,0 km/h (1 Bft)
10.10.2015 11:30 5,4 C 23,6 C 7,1 C 8,3 C 8,3 C 2,9 C 81 % 86 % 76 % 1020,2 hPa 0,0 l/m 1,9 km/h (1 Bft) O 90 0 min 2,4 C 8,3 C 0,0 km/h (0 Bft)
10.10.2015 11:35 5,5 C 23,7 C 7,1 C 8,4 C 8,4 C 2,9 C 81 % 87 % 76 % 1020,2 hPa 0,0 l/m 1,8 km/h (1 Bft) N-NO 22 0 min 2,5 C 8,4 C 0,0 km/h (0 Bft)
10.10.2015 11:40 5,7 C 23,6 C 7,2 C 8,7 C 8,7 C 3,0 C 81 % 86 % 79 % 1020,2 hPa 0,0 l/m 1,8 km/h (1 Bft) N-NO 22 0 min 2,7 C 8,7 C 2,4 km/h (1 Bft)
10.10.2015 11:45 5,7 C 23,6 C 7,1 C 8,6 C 8,6 C 2,9 C 80 % 85 % 76 % 1020,2 hPa 0,0 l/m 2,3 km/h (1 Bft) O-NO 67 0 min 2,5 C 8,6 C 2,9 km/h (1 Bft)
10.10.2015 11:50 5,7 C 23,6 C 7,0 C 8,6 C 8,6 C 2,9 C 80 % 85 % 76 % 1019,9 hPa 0,0 l/m 2,3 km/h (1 Bft) NO 45 0 min 2,5 C 8,6 C 2,6 km/h (1 Bft)
10.10.2015 11:55 5,9 C 23,6 C 7,1 C 8,8 C 8,8 C 2,9 C 80 % 85 % 76 % 1019,9 hPa 0,0 l/m 2,3 km/h (1 Bft) W-SW 247 0 min 2,7 C 8,8 C 0,0 km/h (0 Bft)
10.10.2015 12:00 5,9 C 23,6 C 7,1 C 8,9 C 8,9 C 3,0 C 80 % 85 % 79 % 1019,9 hPa 0,0 l/m 1,8 km/h (1 Bft) W-SW 247 0 min 2,7 C 8,9 C 0,0 km/h (0 Bft)
10.10.2015 12:05 5,8 C 23,6 C 7,2 C 8,8 C 8,8 C 3,0 C 80 % 85 % 79 % 1019,9 hPa 0,0 l/m 2,1 km/h (1 Bft) O-NO 67 0 min 2,6 C 8,8 C 4,5 km/h (1 Bft)
10.10.2015 12:10 6,0 C 23,6 C 7,3 C 8,8 C 8,8 C 2,8 C 80 % 86 % 74 % 1019,8 hPa 0,0 l/m 1,9 km/h (1 Bft) NO 45 0 min 2,8 C 8,8 C 3,4 km/h (1 Bft)
10.10.2015 12:15 6,0 C 23,7 C 7,5 C 8,8 C 8,8 C 2,8 C 80 % 85 % 74 % 1019,8 hPa 0,0 l/m 1,9 km/h (1 Bft) N 360 0 min 2,8 C 8,8 C 3,1 km/h (1 Bft)
10.10.2015 12:20 6,1 C 23,7 C 7,5 C 8,9 C 8,9 C 2,8 C 79 % 84 % 74 % 1019,8 hPa 0,0 l/m 2,6 km/h (1 Bft) O 90 0 min 2,7 C 8,9 C 3,4 km/h (1 Bft)
10.10.2015 12:25 6,1 C 23,6 C 7,3 C 9,0 C 9,0 C 2,9 C 78 % 84 % 76 % 1019,8 hPa 0,0 l/m 3,4 km/h (1 Bft) O-SO 112 0 min 2,6 C 9,0 C 3,5 km/h (1 Bft)
10.10.2015 12:30 6,2 C 23,6 C 7,3 C 10,6 C 10,6 C 4,4 C 78 % 83 % 100 % 1019,8 hPa 0,0 l/m 3,2 km/h (1 Bft) N-NW 337 5 min 2,7 C 10,6 C 0,0 km/h (0 Bft)
10.10.2015 12:35 6,3 C 23,6 C 7,4 C 11,9 C 11,9 C 5,6 C 79 % 83 % 100 % 1019,8 hPa 0,0 l/m 2,9 km/h (1 Bft) O-SO 112 5 min 2,9 C 11,9 C 3,5 km/h (1 Bft)
10.10.2015 12:41 6,6 C 23,6 C 7,6 C 12,5 C 12,5 C 5,9 C 78 % 82 % 100 % 1019,8 hPa 0,0 l/m 3,5 km/h (1 Bft) N 0 6 min 3,0 C 12,5 C 9,8 km/h (2 Bft)
10.10.2015 12:50 6,9 C 23,6 C 7,7 C 13,1 C 13,1 C 6,2 C 77 % 82 % 100 % 1019,8 hPa 0,0 l/m 3,4 km/h (1 Bft) O-SO 112 9 min 3,2 C 13,1 C 3,9 km/h (1 Bft)
10.10.2015 12:55 6,9 C 23,6 C 7,8 C 13,4 C 13,4 C 6,5 C 77 % 82 % 100 % 1019,8 hPa 0,0 l/m 3,5 km/h (1 Bft) NO 45 5 min 3,2 C 13,4 C 4,0 km/h (1 Bft)
10.10.2015 13:00 7,2 C 23,6 C 8,0 C 13,7 C 13,7 C 6,5 C 76 % 81 % 100 % 1019,8 hPa 0,0 l/m 3,5 km/h (1 Bft) O-NO 67 5 min 3,3 C 13,7 C 6,9 km/h (2 Bft)
10.10.2015 13:05 7,3 C 23,6 C 8,1 C 13,7 C 13,7 C 6,4 C 76 % 81 % 100 % 1019,8 hPa 0,0 l/m 3,7 km/h (1 Bft) O-NO 67 5 min 3,4 C 13,7 C 4,5 km/h (1 Bft)
10.10.2015 13:10 7,6 C 23,6 C 8,1 C 13,5 C 13,5 C 5,9 C 76 % 80 % 100 % 1019,8 hPa 0,0 l/m 4,3 km/h (1 Bft) O-NO 67 5 min 3,6 C 13,5 C 4,5 km/h (1 Bft)
10.10.2015 13:15 7,6 C 23,6 C 8,3 C 13,7 C 13,7 C 6,1 C 76 % 81 % 100 % 1019,8 hPa 0,0 l/m 4,0 km/h (1 Bft) O-NO 67 5 min 3,6 C 13,7 C 4,5 km/h (1 Bft)
10.10.2015 13:20 7,9 C 23,6 C 8,3 C 13,9 C 13,9 C 6,0 C 75 % 80 % 100 % 1019,8 hPa 0,0 l/m 3,4 km/h (1 Bft) N-NO 22 5 min 3,7 C 13,9 C 3,1 km/h (1 Bft)
10.10.2015 13:25 7,9 C 23,6 C 8,3 C 13,8 C 13,8 C 5,9 C 75 % 80 % 100 % 1019,8 hPa 0,0 l/m 3,9 km/h (1 Bft) O-SO 112 5 min 3,7 C 13,8 C 1,6 km/h (1 Bft)
10.10.2015 13:30 8,1 C 23,6 C 8,5 C 14,3 C 14,3 C 6,2 C 75 % 81 % 100 % 1019,4 hPa 0,0 l/m 3,2 km/h (1 Bft) O-NO 67 5 min 3,9 C 14,3 C 1,6 km/h (1 Bft)
10.10.2015 13:35 8,3 C 23,6 C 8,5 C 14,3 C 14,3 C 6,0 C 74 % 80 % 100 % 1019,4 hPa 0,0 l/m 3,2 km/h (1 Bft) O-NO 67 5 min 3,9 C 14,3 C 7,6 km/h (2 Bft)
10.10.2015 13:40 8,3 C 23,6 C 8,6 C 13,7 C 13,7 C 5,4 C 74 % 79 % 100 % 1019,4 hPa 0,0 l/m 4,8 km/h (1 Bft) O 90 5 min 3,9 C 13,7 C 4,5 km/h (1 Bft)
10.10.2015 13:45 8,3 C 23,6 C 8,6 C 13,8 C 13,8 C 5,5 C 75 % 80 % 100 % 1019,4 hPa 0,0 l/m 4,3 km/h (1 Bft) O 90 5 min 4,1 C 13,8 C 3,5 km/h (1 Bft)
10.10.2015 13:50 8,5 C 23,6 C 8,7 C 13,7 C 13,7 C 5,2 C 73 % 79 % 100 % 1019,2 hPa 0,0 l/m 4,7 km/h (1 Bft) O 90 5 min 3,9 C 13,7 C 10,6 km/h (2 Bft)
10.10.2015 13:55 8,5 C 23,6 C 8,8 C 13,7 C 13,7 C 5,2 C 74 % 78 % 100 % 1019,2 hPa 0,0 l/m 4,8 km/h (1 Bft) O-NO 67 5 min 4,1 C 13,7 C 5,8 km/h (2 Bft)
10.10.2015 14:00 8,7 C 23,6 C 8,9 C 14,5 C 14,5 C 5,8 C 74 % 79 % 100 % 1019,2 hPa 0,0 l/m 3,5 km/h (1 Bft) O-NO 67 5 min 4,3 C 14,5 C 3,7 km/h (1 Bft)
10.10.2015 14:05 8,8 C 23,5 C 9,1 C 14,8 C 14,8 C 6,0 C 74 % 78 % 100 % 1019,2 hPa 0,0 l/m 2,7 km/h (1 Bft) NW 315 5 min 4,4 C 14,8 C 1,9 km/h (1 Bft)
10.10.2015 14:10 9,1 C 23,5 C 9,3 C 14,7 C 14,7 C 5,6 C 73 % 78 % 100 % 1019,2 hPa 0,0 l/m 4,0 km/h (1 Bft) O 90 5 min 4,5 C 14,7 C 12,7 km/h (3 Bft)
10.10.2015 14:15 9,1 C 23,5 C 9,2 C 14,4 C 14,4 C 5,3 C 73 % 77 % 100 % 1019,2 hPa 0,0 l/m 4,5 km/h (1 Bft) O-NO 67 5 min 4,5 C 14,4 C 2,9 km/h (1 Bft)
10.10.2015 14:20 9,1 C 23,5 C 9,3 C 14,5 C 14,5 C 5,4 C 72 % 77 % 100 % 1019,2 hPa 0,0 l/m 4,3 km/h (1 Bft) N-NO 22 5 min 4,3 C 14,5 C 0,0 km/h (0 Bft)
10.10.2015 14:25 9,3 C 23,5 C 9,5 C 14,9 C 14,9 C 5,6 C 73 % 77 % 100 % 1019,2 hPa 0,0 l/m 3,2 km/h (1 Bft) S-SW 202 5 min 4,7 C 14,9 C 3,2 km/h (1 Bft)
10.10.2015 14:30 9,5 C 23,5 C 9,7 C 15,2 C 15,2 C 5,7 C 71 % 75 % 100 % 1019,1 hPa 0,0 l/m 2,9 km/h (1 Bft) O-SO 112 5 min 4,5 C 15,2 C 9,0 km/h (2 Bft)
10.10.2015 14:35 9,5 C 23,4 C 9,7 C 15,3 C 15,3 C 5,8 C 71 % 75 % 100 % 1019,1 hPa 0,0 l/m 3,4 km/h (1 Bft) N-NW 337 5 min 4,5 C 15,3 C 2,6 km/h (1 Bft)
10.10.2015 14:40 9,7 C 23,4 C 9,7 C 15,3 C 15,3 C 5,6 C 70 % 75 % 100 % 1019,1 hPa 0,0 l/m 4,3 km/h (1 Bft) O 90 5 min 4,5 C 15,3 C 9,2 km/h (2 Bft)
10.10.2015 14:45 9,6 C 23,4 C 9,7 C 14,7 C 14,7 C 5,1 C 70 % 74 % 100 % 1019,1 hPa 0,0 l/m 5,0 km/h (1 Bft) O-SO 112 5 min 4,4 C 14,7 C 2,4 km/h (1 Bft)
10.10.2015 14:50 9,9 C 23,4 C 9,9 C 14,9 C 14,9 C 5,0 C 69 % 73 % 100 % 1018,8 hPa 0,0 l/m 4,7 km/h (1 Bft) O 90 5 min 4,5 C 14,9 C 7,6 km/h (2 Bft)
10.10.2015 14:55 9,9 C 23,4 C 9,8 C 14,6 C 14,6 C 4,7 C 69 % 73 % 100 % 1018,8 hPa 0,0 l/m 4,2 km/h (1 Bft) O-NO 67 5 min 4,5 C 14,6 C 8,7 km/h (2 Bft)
10.10.2015 15:00 9,9 C 23,4 C 9,9 C 14,8 C 14,8 C 4,9 C 70 % 73 % 100 % 1018,8 hPa 0,0 l/m 4,3 km/h (1 Bft) O-SO 112 5 min 4,7 C 14,8 C 2,4 km/h (1 Bft)
10.10.2015 15:05 9,9 C 23,4 C 10,0 C 15,1 C 15,1 C 5,2 C 69 % 73 % 100 % 1018,8 hPa 0,0 l/m 3,2 km/h (1 Bft) O-NO 67 5 min 4,5 C 15,1 C 3,9 km/h (1 Bft)
10.10.2015 15:10 10,0 C 23,4 C 10,0 C 15,0 C 15,0 C 5,0 C 68 % 72 % 100 % 1018,8 hPa 0,0 l/m 4,3 km/h (1 Bft) O-NO 67 5 min 4,4 C 15,0 C 6,9 km/h (2 Bft)
10.10.2015 15:15 10,0 C 23,4 C 10,1 C 14,4 C 14,4 C 4,4 C 68 % 72 % 100 % 1018,8 hPa 0,0 l/m 6,3 km/h (2 Bft) O-NO 67 5 min 4,4 C 14,4 C 10,3 km/h (2 Bft)
10.10.2015 15:20 10,1 C 23,4 C 10,1 C 14,2 C 14,2 C 4,1 C 68 % 72 % 100 % 1018,8 hPa 0,0 l/m 6,0 km/h (2 Bft) O-SO 112 5 min 4,5 C 14,2 C 9,0 km/h (2 Bft)
10.10.2015 15:25 10,1 C 23,6 C 10,1 C 14,2 C 14,2 C 4,1 C 68 % 73 % 100 % 1018,8 hPa 0,0 l/m 5,3 km/h (1 Bft) O 90 5 min 4,5 C 14,2 C 3,9 km/h (1 Bft)
10.10.2015 15:30 10,2 C 23,6 C 10,2 C 14,3 C 14,3 C 4,1 C 68 % 72 % 100 % 1018,8 hPa 0,0 l/m 5,5 km/h (1 Bft) O 90 5 min 4,6 C 14,3 C 13,2 km/h (3 Bft)
10.10.2015 15:35 10,3 C 23,6 C 10,2 C 14,2 C 14,2 C 3,9 C 69 % 74 % 100 % 1018,8 hPa 0,0 l/m 4,8 km/h (1 Bft) O-NO 67 5 min 4,9 C 14,2 C 4,3 km/h (1 Bft)
10.10.2015 15:41 10,4 C 23,6 C 10,3 C 14,7 C 14,7 C 4,3 C 69 % 73 % 100 % 1018,8 hPa 0,0 l/m 3,5 km/h (1 Bft) N 0 6 min 5,0 C 14,7 C 5,1 km/h (1 Bft)
10.10.2015 15:50 10,5 C 23,6 C 10,5 C 15,2 C 15,2 C 4,7 C 69 % 73 % 100 % 1018,8 hPa 0,0 l/m 2,9 km/h (1 Bft) O-NO 67 9 min 5,1 C 15,2 C 3,1 km/h (1 Bft)
10.10.2015 15:55 10,4 C 23,6 C 10,4 C 15,2 C 15,2 C 4,8 C 68 % 72 % 100 % 1018,8 hPa 0,0 l/m 3,4 km/h (1 Bft) O-NO 67 5 min 4,8 C 15,2 C 6,4 km/h (2 Bft)
10.10.2015 16:00 10,4 C 23,6 C 10,7 C 15,4 C 15,4 C 5,0 C 69 % 72 % 100 % 1018,8 hPa 0,0 l/m 3,2 km/h (1 Bft) O-NO 67 5 min 5,0 C 15,4 C 3,1 km/h (1 Bft)
10.10.2015 16:05 10,4 C 23,6 C 10,8 C 16,0 C 16,0 C 5,6 C 69 % 72 % 100 % 1018,8 hPa 0,0 l/m 2,3 km/h (1 Bft) O-NO 67 5 min 5,0 C 16,0 C 2,7 km/h (1 Bft)
10.10.2015 16:10 10,6 C 23,6 C 11,0 C 16,3 C 16,3 C 5,7 C 69 % 72 % 100 % 1018,7 hPa 0,0 l/m 2,6 km/h (1 Bft) SO 135 5 min 5,2 C 16,3 C 6,9 km/h (2 Bft)
10.10.2015 16:15 10,7 C 23,6 C 11,0 C 16,1 C 16,1 C 5,4 C 67 % 70 % 100 % 1018,7 hPa 0,0 l/m 4,2 km/h (1 Bft) O-NO 67 5 min 4,8 C 16,1 C 5,8 km/h (2 Bft)
10.10.2015 16:20 10,6 C 23,6 C 10,7 C 14,7 C 14,7 C 4,1 C 67 % 71 % 100 % 1018,7 hPa 0,0 l/m 5,6 km/h (1 Bft) O-NO 67 5 min 4,7 C 14,7 C 4,2 km/h (1 Bft)
10.10.2015 16:25 10,5 C 23,6 C 10,7 C 13,7 C 13,7 C 3,2 C 68 % 71 % 84 % 1018,7 hPa 0,0 l/m 5,1 km/h (1 Bft) O-SO 112 5 min 4,8 C 13,7 C 7,1 km/h (2 Bft)
10.10.2015 16:30 10,4 C 23,6 C 10,5 C 12,6 C 12,6 C 2,2 C 67 % 71 % 58 % 1019,6 hPa 0,0 l/m 4,3 km/h (1 Bft) NO 45 0 min 4,5 C 12,6 C 1,8 km/h (1 Bft)
10.10.2015 16:35 10,4 C 23,6 C 10,5 C 12,1 C 12,1 C 1,7 C 69 % 72 % 45 % 1019,6 hPa 0,0 l/m 4,0 km/h (1 Bft) O-NO 67 0 min 5,0 C 12,1 C 2,1 km/h (1 Bft)
10.10.2015 16:40 10,5 C 23,6 C 10,3 C 11,6 C 11,6 C 1,1 C 68 % 71 % 29 % 1019,6 hPa 0,0 l/m 2,4 km/h (1 Bft) O-NO 67 0 min 4,8 C 11,6 C 3,4 km/h (1 Bft)
10.10.2015 16:45 10,3 C 23,5 C 10,3 C 11,4 C 11,4 C 1,1 C 68 % 72 % 29 % 1019,6 hPa 0,0 l/m 2,3 km/h (1 Bft) S 180 0 min 4,7 C 11,4 C 2,3 km/h (1 Bft)
10.10.2015 16:50 10,2 C 23,5 C 10,0 C 11,2 C 11,2 C 1,0 C 68 % 72 % 26 % 1018,8 hPa 0,0 l/m 1,9 km/h (1 Bft) O 90 0 min 4,6 C 11,2 C 1,8 km/h (1 Bft)
10.10.2015 16:55 10,3 C 23,5 C 10,1 C 11,0 C 11,0 C 0,7 C 69 % 72 % 18 % 1018,8 hPa 0,0 l/m 1,3 km/h (1 Bft) O-NO 67 0 min 4,9 C 11,0 C 0,0 km/h (0 Bft)
10.10.2015 17:00 10,1 C 23,5 C 9,9 C 11,0 C 11,0 C 0,9 C 69 % 73 % 24 % 1018,8 hPa 0,0 l/m 1,0 km/h (0 Bft) O-NO 67 0 min 4,7 C 11,0 C 1,8 km/h (1 Bft)
10.10.2015 17:05 10,1 C 23,5 C 9,9 C 10,8 C 10,8 C 0,7 C 69 % 73 % 18 % 1018,8 hPa 0,0 l/m 1,3 km/h (1 Bft) NO 45 0 min 4,7 C 10,8 C 1,6 km/h (1 Bft)
10.10.2015 17:10 10,0 C 23,5 C 9,9 C 10,6 C 10,6 C 0,6 C 69 % 74 % 16 % 1018,9 hPa 0,0 l/m 1,3 km/h (1 Bft) SO 135 0 min 4,6 C 10,6 C 2,7 km/h (1 Bft)
10.10.2015 17:15 10,0 C 23,5 C 9,9 C 10,6 C 10,6 C 0,6 C 69 % 74 % 16 % 1018,9 hPa 0,0 l/m 1,0 km/h (0 Bft) O 90 0 min 4,6 C 10,6 C 2,9 km/h (1 Bft)
10.10.2015 17:20 10,0 C 23,5 C 9,7 C 10,4 C 10,4 C 0,4 C 69 % 74 % 11 % 1018,9 hPa 0,0 l/m 2,6 km/h (1 Bft) NO 45 0 min 4,6 C 10,4 C 3,9 km/h (1 Bft)
10.10.2015 17:25 10,0 C 23,5 C 9,7 C 10,4 C 10,4 C 0,4 C 67 % 72 % 11 % 1018,9 hPa 0,0 l/m 4,2 km/h (1 Bft) O 90 0 min 4,2 C 10,4 C 6,1 km/h (2 Bft)
10.10.2015 17:30 10,0 C 23,5 C 9,7 C 10,1 C 10,1 C 0,1 C 67 % 72 % 3 % 1018,7 hPa 0,0 l/m 5,3 km/h (1 Bft) O 90 0 min 4,2 C 10,1 C 4,8 km/h (1 Bft)
10.10.2015 17:35 9,9 C 23,5 C 9,6 C 10,0 C 10,0 C 0,1 C 66 % 72 % 3 % 1018,7 hPa 0,0 l/m 5,1 km/h (1 Bft) O-SO 112 0 min 3,9 C 9,7 C 7,2 km/h (2 Bft)
10.10.2015 17:40 9,9 C 23,5 C 9,6 C 9,9 C 9,8 C 0,0 C 66 % 71 % 0 % 1018,7 hPa 0,0 l/m 5,8 km/h (2 Bft) O-NO 67 0 min 3,9 C 9,3 C 6,4 km/h (2 Bft)
10.10.2015 17:45 9,8 C 23,5 C 9,6 C 9,7 C 9,4 C 0,0 C 65 % 71 % 0 % 1018,7 hPa 0,0 l/m 6,4 km/h (2 Bft) O-NO 67 0 min 3,5 C 8,7 C 8,4 km/h (2 Bft)
10.10.2015 17:50 9,8 C 23,5 C 9,5 C 9,7 C 9,6 C 0,0 C 65 % 71 % 0 % 1018,6 hPa 0,0 l/m 5,6 km/h (1 Bft) O 90 0 min 3,5 C 9,1 C 14,0 km/h (3 Bft)
10.10.2015 17:55 9,7 C 23,5 C 9,5 C 9,6 C 9,5 C 0,0 C 66 % 71 % 0 % 1018,6 hPa 0,0 l/m 5,3 km/h (1 Bft) O-NO 67 0 min 3,7 C 9,1 C 4,8 km/h (1 Bft)
10.10.2015 18:00 9,6 C 23,5 C 9,3 C 9,5 C 9,4 C 0,0 C 66 % 72 % 0 % 1018,6 hPa 0,0 l/m 5,3 km/h (1 Bft) O-NO 67 0 min 3,6 C 9,0 C 4,3 km/h (1 Bft)
10.10.2015 18:05 9,7 C 23,5 C 9,3 C 9,7 C 9,6 C 0,0 C 66 % 71 % 0 % 1018,6 hPa 0,0 l/m 4,5 km/h (1 Bft) NO 45 0 min 3,7 C 9,6 C 6,1 km/h (2 Bft)
10.10.2015 18:10 9,6 C 23,5 C 9,3 C 9,5 C 9,4 C 0,0 C 66 % 71 % 0 % 1018,5 hPa 0,0 l/m 4,7 km/h (1 Bft) O 90 0 min 3,6 C 9,2 C 6,4 km/h (2 Bft)
10.10.2015 18:15 9,5 C 23,6 C 9,2 C 9,4 C 9,3 C 0,0 C 65 % 71 % 0 % 1018,5 hPa 0,0 l/m 4,7 km/h (1 Bft) O-NO 67 0 min 3,3 C 9,1 C 6,4 km/h (2 Bft)
10.10.2015 18:20 9,4 C 23,6 C 9,2 C 9,3 C 9,1 C 0,0 C 65 % 71 % 0 % 1018,5 hPa 0,0 l/m 5,1 km/h (1 Bft) NO 45 0 min 3,2 C 8,7 C 9,7 km/h (2 Bft)
10.10.2015 18:25 9,5 C 23,5 C 9,1 C 9,3 C 9,0 C 0,0 C 65 % 70 % 0 % 1018,5 hPa 0,0 l/m 5,6 km/h (1 Bft) O 90 0 min 3,3 C 8,4 C 4,3 km/h (1 Bft)
10.10.2015 18:30 9,4 C 23,5 C 9,1 C 9,2 C 8,9 C 0,0 C 64 % 71 % 0 % 1018,7 hPa 0,0 l/m 5,3 km/h (1 Bft) O-NO 67 0 min 2,9 C 8,4 C 7,7 km/h (2 Bft)
10.10.2015 18:35 9,4 C 23,5 C 9,1 C 9,4 C 9,3 C 0,0 C 65 % 71 % 0 % 1018,7 hPa 0,0 l/m 4,3 km/h (1 Bft) O 90 0 min 3,2 C 9,3 C 6,0 km/h (2 Bft)
10.10.2015 18:41 9,3 C 23,5 C 9,1 C 9,3 C 9,3 C 0,0 C 64 % 71 % 0 % 1018,7 hPa 0,0 l/m 4,3 km/h (1 Bft) N 0 0 min 2,8 C 9,3 C 3,7 km/h (1 Bft)
10.10.2015 18:50 9,2 C 23,5 C 8,9 C 9,3 C 9,3 C 0,1 C 65 % 70 % 0 % 1018,7 hPa 0,0 l/m 3,7 km/h (1 Bft) O-NO 67 0 min 3,0 C 9,3 C 4,5 km/h (1 Bft)
10.10.2015 18:55 9,2 C 23,5 C 8,8 C 9,3 C 9,3 C 0,1 C 64 % 70 % 0 % 1018,7 hPa 0,0 l/m 3,9 km/h (1 Bft) O-NO 67 0 min 2,8 C 9,3 C 6,6 km/h (2 Bft)
10.10.2015 19:00 9,2 C 23,5 C 8,9 C 9,2 C 9,2 C 0,0 C 64 % 70 % 0 % 1018,7 hPa 0,0 l/m 3,5 km/h (1 Bft) O-NO 67 0 min 2,8 C 9,2 C 3,2 km/h (1 Bft)
10.10.2015 19:05 9,2 C 23,6 C 8,8 C 9,2 C 9,2 C 0,0 C 64 % 70 % 0 % 1018,7 hPa 0,0 l/m 2,9 km/h (1 Bft) O 90 0 min 2,8 C 9,2 C 3,9 km/h (1 Bft)
10.10.2015 19:10 9,2 C 23,5 C 8,8 C 9,2 C 9,1 C 0,0 C 65 % 70 % 0 % 1018,7 hPa 0,0 l/m 2,6 km/h (1 Bft) O-NO 67 0 min 3,0 C 9,1 C 1,9 km/h (1 Bft)
10.10.2015 19:15 9,1 C 23,6 C 8,7 C 9,1 C 9,1 C 0,0 C 65 % 70 % 0 % 1018,7 hPa 0,0 l/m 2,6 km/h (1 Bft) O-NO 67 0 min 2,9 C 9,1 C 5,3 km/h (1 Bft)
10.10.2015 19:20 9,1 C 23,6 C 8,7 C 9,1 C 9,1 C 0,0 C 65 % 70 % 0 % 1018,7 hPa 0,0 l/m 2,7 km/h (1 Bft) O-NO 67 0 min 2,9 C 9,1 C 5,0 km/h (1 Bft)
10.10.2015 19:25 9,0 C 23,6 C 8,7 C 9,1 C 9,1 C 0,1 C 65 % 70 % 0 % 1018,7 hPa 0,0 l/m 3,1 km/h (1 Bft) O-NO 67 0 min 2,8 C 9,1 C 3,2 km/h (1 Bft)
10.10.2015 19:30 9,1 C 23,6 C 8,6 C 9,1 C 9,0 C 0,0 C 64 % 70 % 0 % 1018,8 hPa 0,0 l/m 2,9 km/h (1 Bft) O-NO 67 0 min 2,7 C 9,0 C 3,4 km/h (1 Bft)
10.10.2015 19:35 9,0 C 23,6 C 8,7 C 9,0 C 9,0 C 0,0 C 65 % 71 % 0 % 1018,8 hPa 0,0 l/m 2,7 km/h (1 Bft) O-NO 67 0 min 2,8 C 9,0 C 1,9 km/h (1 Bft)
10.10.2015 19:40 8,9 C 23,6 C 8,7 C 8,9 C 8,9 C 0,0 C 65 % 71 % 0 % 1018,8 hPa 0,0 l/m 1,9 km/h (1 Bft) O-NO 67 0 min 2,7 C 8,9 C 0,0 km/h (0 Bft)
10.10.2015 19:45 8,9 C 23,6 C 8,6 C 8,9 C 8,8 C 0,0 C 66 % 71 % 0 % 1018,8 hPa 0,0 l/m 1,1 km/h (1 Bft) N-NO 22 0 min 2,9 C 8,8 C 0,0 km/h (0 Bft)
10.10.2015 19:50 8,8 C 23,6 C 8,5 C 8,8 C 8,8 C 0,0 C 67 % 71 % 0 % 1019,1 hPa 0,0 l/m 0,8 km/h (0 Bft) N 360 0 min 3,0 C 8,8 C 0,0 km/h (0 Bft)
10.10.2015 19:55 8,8 C 23,6 C 8,5 C 8,8 C 8,7 C 0,0 C 67 % 71 % 0 % 1019,1 hPa 0,0 l/m 0,5 km/h (0 Bft) O 90 0 min 3,0 C 8,7 C 1,6 km/h (1 Bft)
10.10.2015 20:00 8,7 C 23,6 C 8,4 C 8,7 C 8,6 C 0,0 C 67 % 72 % 0 % 1019,1 hPa 0,0 l/m 1,3 km/h (1 Bft) W-NW 292 0 min 2,9 C 8,6 C 2,9 km/h (1 Bft)
10.10.2015 20:05 8,6 C 23,6 C 8,4 C 8,6 C 8,6 C 0,0 C 67 % 72 % 0 % 1019,1 hPa 0,0 l/m 1,9 km/h (1 Bft) O-SO 112 0 min 2,8 C 8,6 C 1,6 km/h (1 Bft)
10.10.2015 20:10 8,7 C 23,6 C 8,3 C 8,6 C 8,5 C 0,0 C 67 % 72 % 0 % 1019,1 hPa 0,0 l/m 1,4 km/h (1 Bft) O-NO 67 0 min 2,9 C 8,5 C 2,3 km/h (1 Bft)
10.10.2015 20:15 8,5 C 23,6 C 8,2 C 8,5 C 8,4 C 0,0 C 67 % 72 % 0 % 1019,1 hPa 0,0 l/m 1,6 km/h (1 Bft) SO 135 0 min 2,7 C 8,4 C 3,2 km/h (1 Bft)
10.10.2015 20:20 8,5 C 23,6 C 8,2 C 8,5 C 8,4 C 0,0 C 67 % 72 % 0 % 1019,1 hPa 0,0 l/m 2,7 km/h (1 Bft) O 90 0 min 2,7 C 8,4 C 4,7 km/h (1 Bft)
10.10.2015 20:25 8,4 C 23,6 C 8,1 C 8,4 C 8,3 C 0,0 C 67 % 72 % 0 % 1019,1 hPa 0,0 l/m 3,1 km/h (1 Bft) O 90 0 min 2,6 C 8,3 C 3,1 km/h (1 Bft)
10.10.2015 20:30 8,3 C 23,7 C 8,0 C 8,2 C 8,1 C 0,0 C 67 % 72 % 0 % 1019,1 hPa 0,0 l/m 3,1 km/h (1 Bft) O-NO 67 0 min 2,5 C 8,1 C 3,1 km/h (1 Bft)
10.10.2015 20:35 8,1 C 23,7 C 7,9 C 8,0 C 7,9 C 0,0 C 66 % 72 % 0 % 1019,1 hPa 0,0 l/m 3,2 km/h (1 Bft) O-NO 67 0 min 2,1 C 7,9 C 2,6 km/h (1 Bft)
10.10.2015 20:40 8,0 C 23,7 C 7,7 C 7,8 C 7,5 C 0,0 C 66 % 72 % 0 % 1019,1 hPa 0,0 l/m 3,9 km/h (1 Bft) O-SO 112 0 min 2,0 C 7,5 C 6,6 km/h (2 Bft)
10.10.2015 20:45 7,9 C 23,7 C 7,7 C 7,7 C 7,4 C 0,0 C 66 % 72 % 0 % 1019,1 hPa 0,0 l/m 3,7 km/h (1 Bft) O 90 0 min 1,9 C 7,4 C 2,6 km/h (1 Bft)
10.10.2015 20:50 7,7 C 23,6 C 7,5 C 7,5 C 7,2 C 0,0 C 66 % 72 % 0 % 1019,0 hPa 0,0 l/m 3,1 km/h (1 Bft) O-SO 112 0 min 1,8 C 7,2 C 2,9 km/h (1 Bft)
10.10.2015 20:55 7,6 C 23,6 C 7,2 C 7,4 C 6,9 C 0,0 C 66 % 71 % 0 % 1019,0 hPa 0,0 l/m 3,1 km/h (1 Bft) O-NO 67 0 min 1,7 C 6,9 C 5,0 km/h (1 Bft)
10.10.2015 21:00 7,4 C 23,6 C 7,1 C 7,1 C 6,4 C 0,0 C 66 % 71 % 0 % 1019,0 hPa 0,0 l/m 3,7 km/h (1 Bft) O-NO 67 0 min 1,5 C 6,4 C 5,3 km/h (1 Bft)
10.10.2015 21:05 7,2 C 23,6 C 6,9 C 6,9 C 6,4 C 0,0 C 66 % 72 % 0 % 1019,0 hPa 0,0 l/m 3,5 km/h (1 Bft) O-NO 67 0 min 1,3 C 6,4 C 1,8 km/h (1 Bft)
10.10.2015 21:10 7,1 C 23,6 C 6,7 C 6,8 C 6,1 C 0,0 C 67 % 72 % 0 % 1019,1 hPa 0,0 l/m 2,7 km/h (1 Bft) O-NO 67 0 min 1,4 C 6,1 C 3,2 km/h (1 Bft)
10.10.2015 21:15 6,9 C 23,6 C 6,7 C 6,6 C 5,9 C 0,0 C 67 % 73 % 0 % 1019,1 hPa 0,0 l/m 3,1 km/h (1 Bft) O-NO 67 0 min 1,2 C 5,9 C 5,8 km/h (2 Bft)
10.10.2015 21:20 6,7 C 23,6 C 6,5 C 6,4 C 5,7 C 0,0 C 67 % 73 % 0 % 1019,1 hPa 0,0 l/m 3,4 km/h (1 Bft) NO 45 0 min 1,0 C 5,7 C 3,2 km/h (1 Bft)
10.10.2015 21:25 6,7 C 23,6 C 6,5 C 6,3 C 5,6 C 0,0 C 68 % 73 % 0 % 1019,1 hPa 0,0 l/m 2,4 km/h (1 Bft) N 360 0 min 1,2 C 5,6 C 0,0 km/h (0 Bft)
10.10.2015 21:30 6,4 C 23,5 C 6,1 C 6,0 C 5,3 C 0,0 C 68 % 74 % 0 % 1019,2 hPa 0,0 l/m 1,0 km/h (0 Bft) N-NW 337 0 min 0,9 C 5,3 C 2,4 km/h (1 Bft)
10.10.2015 21:35 6,3 C 23,5 C 6,0 C 5,9 C 5,1 C 0,0 C 68 % 74 % 0 % 1019,2 hPa 0,0 l/m 0,5 km/h (0 Bft) O-NO 67 0 min 0,8 C 5,1 C 2,1 km/h (1 Bft)
10.10.2015 21:41 6,1 C 23,5 C 5,9 C 5,7 C 4,9 C 0,0 C 69 % 74 % 0 % 1019,2 hPa 0,0 l/m 0,8 km/h (0 Bft) N 0 0 min 0,8 C 4,9 C 2,1 km/h (1 Bft)
10.10.2015 21:50 5,9 C 23,5 C 5,7 C 5,5 C 4,6 C 0,0 C 69 % 74 % 0 % 1019,8 hPa 0,0 l/m 0,8 km/h (0 Bft) W-SW 247 0 min 0,7 C 4,6 C 2,3 km/h (1 Bft)
10.10.2015 21:55 5,9 C 23,5 C 5,6 C 5,4 C 4,5 C 0,0 C 70 % 75 % 0 % 1019,8 hPa 0,0 l/m 0,5 km/h (0 Bft) NO 45 0 min 0,9 C 4,5 C 0,0 km/h (0 Bft)
10.10.2015 22:00 5,6 C 23,5 C 5,6 C 5,1 C 4,2 C 0,0 C 70 % 75 % 0 % 1019,8 hPa 0,0 l/m 0,2 km/h (0 Bft) NO 45 0 min 0,6 C 4,2 C 0,0 km/h (0 Bft)
10.10.2015 22:05 5,6 C 23,5 C 5,4 C 5,0 C 3,9 C 0,0 C 70 % 76 % 0 % 1019,8 hPa 0,0 l/m 0,0 km/h (0 Bft) NO 45 0 min 0,6 C 3,9 C 0,0 km/h (0 Bft)
10.10.2015 22:10 5,3 C 23,6 C 5,2 C 4,8 C 3,7 C 0,0 C 71 % 76 % 0 % 1019,8 hPa 0,0 l/m 0,0 km/h (0 Bft) S 180 0 min 0,5 C 3,7 C 0,0 km/h (0 Bft)
10.10.2015 22:15 5,2 C 23,6 C 5,2 C 4,7 C 3,6 C 0,0 C 71 % 77 % 0 % 1019,8 hPa 0,0 l/m 0,0 km/h (0 Bft) S 180 0 min 0,4 C 3,6 C 0,0 km/h (0 Bft)
10.10.2015 22:20 5,1 C 23,5 C 5,1 C 4,5 C 3,4 C 0,0 C 71 % 77 % 0 % 1019,8 hPa 0,0 l/m 0,0 km/h (0 Bft) S 180 0 min 0,3 C 3,4 C 0,0 km/h (0 Bft)
10.10.2015 22:25 5,1 C 23,5 C 4,9 C 4,5 C 3,3 C 0,0 C 72 % 77 % 0 % 1019,8 hPa 0,0 l/m 0,0 km/h (0 Bft) S 180 0 min 0,5 C 3,3 C 0,0 km/h (0 Bft)
10.10.2015 22:30 4,9 C 23,5 C 4,9 C 4,3 C 3,0 C 0,0 C 72 % 77 % 0 % 1019,7 hPa 0,0 l/m 0,0 km/h (0 Bft) S 180 0 min 0,3 C 3,0 C 0,0 km/h (0 Bft)
10.10.2015 22:35 4,7 C 23,5 C 4,7 C 4,1 C 2,9 C 0,0 C 72 % 78 % 0 % 1019,7 hPa 0,0 l/m 0,0 km/h (0 Bft) S 180 0 min 0,1 C 2,9 C 0,0 km/h (0 Bft)
10.10.2015 22:40 4,5 C 23,5 C 4,7 C 3,9 C 2,8 C 0,0 C 73 % 78 % 0 % 1019,7 hPa 0,0 l/m 0,0 km/h (0 Bft) S 180 0 min 0,1 C 2,8 C 0,0 km/h (0 Bft)
10.10.2015 22:45 4,5 C 23,5 C 4,5 C 3,9 C 2,6 C 0,0 C 73 % 78 % 0 % 1019,7 hPa 0,0 l/m 0,0 km/h (0 Bft) S 180 0 min 0,1 C 2,6 C 0,0 km/h (0 Bft)
10.10.2015 22:50 4,2 C 23,5 C 4,4 C 3,6 C 2,4 C 0,0 C 73 % 79 % 0 % 1019,8 hPa 0,0 l/m 0,0 km/h (0 Bft) S 180 0 min -0,2 C 2,4 C 0,0 km/h (0 Bft)
10.10.2015 22:55 4,1 C 23,5 C 4,4 C 3,5 C 2,3 C 0,0 C 74 % 79 % 0 % 1019,8 hPa 0,0 l/m 0,0 km/h (0 Bft) S 180 0 min -0,1 C 2,3 C 0,0 km/h (0 Bft)
10.10.2015 23:00 4,1 C 23,4 C 4,2 C 3,5 C 2,3 C 0,0 C 74 % 80 % 0 % 1019,8 hPa 0,0 l/m 0,0 km/h (0 Bft) S 180 0 min -0,1 C 2,3 C 0,0 km/h (0 Bft)
10.10.2015 23:05 3,9 C 23,4 C 4,1 C 3,3 C 2,2 C 0,0 C 74 % 80 % 0 % 1019,8 hPa 0,0 l/m 0,0 km/h (0 Bft) S 180 0 min -0,3 C 2,2 C 0,0 km/h (0 Bft)
10.10.2015 23:10 3,9 C 23,4 C 4,1 C 3,3 C 2,1 C 0,0 C 75 % 80 % 0 % 1019,6 hPa 0,0 l/m 0,0 km/h (0 Bft) O-NO 67 0 min -0,1 C 2,1 C 0,0 km/h (0 Bft)
10.10.2015 23:15 3,8 C 23,4 C 4,0 C 3,2 C 2,1 C 0,0 C 75 % 80 % 0 % 1019,6 hPa 0,0 l/m 0,0 km/h (0 Bft) O-NO 67 0 min -0,2 C 2,1 C 0,0 km/h (0 Bft)
10.10.2015 23:20 3,7 C 23,4 C 4,1 C 3,1 C 2,0 C 0,0 C 75 % 80 % 0 % 1019,6 hPa 0,0 l/m 0,0 km/h (0 Bft) O-NO 67 0 min -0,3 C 2,0 C 0,0 km/h (0 Bft)
10.10.2015 23:25 3,6 C 23,4 C 3,9 C 3,0 C 1,9 C 0,0 C 76 % 80 % 0 % 1019,6 hPa 0,0 l/m 0,0 km/h (0 Bft) O-NO 67 0 min -0,2 C 1,9 C 0,0 km/h (0 Bft)
10.10.2015 23:30 3,6 C 23,4 C 3,7 C 3,0 C 1,9 C 0,0 C 76 % 80 % 0 % 1019,4 hPa 0,0 l/m 0,0 km/h (0 Bft) O-NO 67 0 min -0,2 C 1,9 C 0,0 km/h (0 Bft)
10.10.2015 23:35 3,5 C 23,4 C 3,8 C 3,0 C 1,9 C 0,0 C 76 % 81 % 0 % 1019,4 hPa 0,0 l/m 0,3 km/h (0 Bft) O-NO 67 0 min -0,3 C 1,9 C 0,0 km/h (0 Bft)
10.10.2015 23:40 3,5 C 23,4 C 3,6 C 3,0 C 2,0 C 0,0 C 76 % 81 % 0 % 1019,4 hPa 0,0 l/m 0,3 km/h (0 Bft) O-NO 67 0 min -0,3 C 2,0 C 0,0 km/h (0 Bft)
10.10.2015 23:45 3,5 C 23,4 C 3,6 C 3,0 C 1,9 C 0,0 C 76 % 81 % 0 % 1019,4 hPa 0,0 l/m 0,0 km/h (0 Bft) O-NO 67 0 min -0,3 C 1,9 C 0,0 km/h (0 Bft)
10.10.2015 23:50 3,3 C 23,3 C 3,6 C 2,8 C 1,8 C 0,0 C 76 % 81 % 0 % 1019,7 hPa 0,0 l/m 0,0 km/h (0 Bft) O-NO 67 0 min -0,5 C 1,8 C 0,0 km/h (0 Bft)
10.10.2015 23:55 3,2 C 23,3 C 3,5 C 2,7 C 1,6 C 0,0 C 76 % 81 % 0 % 1019,7 hPa 0,0 l/m 0,2 km/h (0 Bft) NW 315 0 min -0,6 C 1,6 C 1,9 km/h (1 Bft)
_ Min-Zeit 06:00 23:50 23:55 05:45 05:45 04:35 18:30 16:15 00:00 18:10 - 00:00 - - - 23:55 05:45 00:00
Minimum _ 1,8 C 23,3 C 3,5 C 1,8 C 1,6 C 0,0 C 64 % 70 % 0 % 1018,5 hPa - 0,0 km/h (0 Bft) - - - -0,6 C 1,6 C 0,0 km/h (0 Bft)
_ Max-Zeit 16:15 00:00 16:10 16:10 16:10 13:00 06:15 02:35 12:30 09:50 00:00 17:45 - - 12:50 16:10 16:10 17:50
Maximum _ 10,7 C 26,1 C 11,0 C 16,3 C 16,3 C 6,5 C 88 % 89 % 100 % 1021,3 hPa 0,0 l/m 6,4 km/h
O-NO (2 Bft)
- - 9 min 5,2 C 16,3 C 14,0 km/h
O (3 Bft)
Durchschnitt _ 6,0 C 24,1 C 6,9 C 7,6 C 7,4 C 1,6 C 77 % 82 % 31 % 1019,6 hPa #0,0 l/m 1,7 km/h (1 Bft) O-NO - #5:30 h 2,3 C 7,4 C 2,2 km/h (1 Bft)
2015 www.wetterstation-wechselburg.de